sensor_id;sensor_type;location;lat;lon;timestamp;P1;durP1;ratioP1;P2;durP2;ratioP2
3916;SDS011;1973;50.518;7.318;2023-11-19T00:01:33;1.43;;;0.90;;
3916;SDS011;1973;50.518;7.318;2023-11-19T00:04:00;3.20;;;1.87;;
3916;SDS011;1973;50.518;7.318;2023-11-19T00:06:27;3.30;;;1.90;;
3916;SDS011;1973;50.518;7.318;2023-11-19T00:08:54;1.50;;;1.10;;
3916;SDS011;1973;50.518;7.318;2023-11-19T00:11:20;1.80;;;1.20;;
3916;SDS011;1973;50.518;7.318;2023-11-19T00:13:47;1.60;;;1.00;;
3916;SDS011;1973;50.518;7.318;2023-11-19T00:16:14;5.20;;;1.23;;
3916;SDS011;1973;50.518;7.318;2023-11-19T00:18:42;2.97;;;1.30;;
3916;SDS011;1973;50.518;7.318;2023-11-19T00:21:09;2.00;;;1.20;;
3916;SDS011;1973;50.518;7.318;2023-11-19T00:23:37;1.93;;;1.47;;
3916;SDS011;1973;50.518;7.318;2023-11-19T00:26:04;3.53;;;1.30;;
3916;SDS011;1973;50.518;7.318;2023-11-19T00:28:32;2.37;;;1.20;;
3916;SDS011;1973;50.518;7.318;2023-11-19T00:31:00;2.30;;;1.10;;
3916;SDS011;1973;50.518;7.318;2023-11-19T00:33:27;1.50;;;1.00;;
3916;SDS011;1973;50.518;7.318;2023-11-19T00:35:54;3.80;;;1.20;;
3916;SDS011;1973;50.518;7.318;2023-11-19T00:38:21;1.33;;;0.90;;
3916;SDS011;1973;50.518;7.318;2023-11-19T00:40:48;1.93;;;1.10;;
3916;SDS011;1973;50.518;7.318;2023-11-19T00:43:14;1.90;;;1.20;;
3916;SDS011;1973;50.518;7.318;2023-11-19T00:45:41;4.40;;;1.37;;
3916;SDS011;1973;50.518;7.318;2023-11-19T00:48:07;3.10;;;1.67;;
3916;SDS011;1973;50.518;7.318;2023-11-19T00:50:34;2.70;;;1.70;;
3916;SDS011;1973;50.518;7.318;2023-11-19T00:53:03;2.13;;;1.53;;
3916;SDS011;1973;50.518;7.318;2023-11-19T00:55:30;1.97;;;1.23;;
3916;SDS011;1973;50.518;7.318;2023-11-19T00:57:56;2.20;;;0.97;;
3916;SDS011;1973;50.518;7.318;2023-11-19T01:00:23;1.90;;;1.30;;
3916;SDS011;1973;50.518;7.318;2023-11-19T01:02:53;2.60;;;1.10;;
3916;SDS011;1973;50.518;7.318;2023-11-19T01:05:20;1.73;;;1.00;;
3916;SDS011;1973;50.518;7.318;2023-11-19T01:07:50;2.27;;;0.80;;
3916;SDS011;1973;50.518;7.318;2023-11-19T01:10:18;1.57;;;0.67;;
3916;SDS011;1973;50.518;7.318;2023-11-19T01:12:45;1.97;;;0.87;;
3916;SDS011;1973;50.518;7.318;2023-11-19T01:15:12;1.40;;;0.80;;
3916;SDS011;1973;50.518;7.318;2023-11-19T01:17:39;1.40;;;0.70;;
3916;SDS011;1973;50.518;7.318;2023-11-19T01:20:18;1.13;;;0.80;;
3916;SDS011;1973;50.518;7.318;2023-11-19T01:22:46;1.50;;;1.10;;
3916;SDS011;1973;50.518;7.318;2023-11-19T01:25:15;1.40;;;0.83;;
3916;SDS011;1973;50.518;7.318;2023-11-19T01:27:41;1.40;;;1.00;;
3916;SDS011;1973;50.518;7.318;2023-11-19T01:30:08;2.03;;;0.77;;
3916;SDS011;1973;50.518;7.318;2023-11-19T01:32:42;4.83;;;3.67;;
3916;SDS011;1973;50.518;7.318;2023-11-19T01:35:08;6.30;;;3.20;;
3916;SDS011;1973;50.518;7.318;2023-11-19T01:37:35;2.30;;;1.83;;
3916;SDS011;1973;50.518;7.318;2023-11-19T01:40:03;1.50;;;0.93;;
3916;SDS011;1973;50.518;7.318;2023-11-19T01:42:37;2.00;;;0.93;;
3916;SDS011;1973;50.518;7.318;2023-11-19T01:45:04;1.60;;;0.70;;
3916;SDS011;1973;50.518;7.318;2023-11-19T01:47:33;1.40;;;0.70;;
3916;SDS011;1973;50.518;7.318;2023-11-19T01:50:01;1.77;;;0.60;;
3916;SDS011;1973;50.518;7.318;2023-11-19T01:52:33;1.07;;;0.70;;
3916;SDS011;1973;50.518;7.318;2023-11-19T01:55:02;5.07;;;0.73;;
3916;SDS011;1973;50.518;7.318;2023-11-19T01:57:30;1.27;;;0.50;;
3916;SDS011;1973;50.518;7.318;2023-11-19T01:59:57;1.20;;;0.70;;
3916;SDS011;1973;50.518;7.318;2023-11-19T02:02:24;1.50;;;0.90;;
3916;SDS011;1973;50.518;7.318;2023-11-19T02:04:52;0.97;;;0.57;;
3916;SDS011;1973;50.518;7.318;2023-11-19T02:07:19;2.70;;;0.70;;
3916;SDS011;1973;50.518;7.318;2023-11-19T02:09:47;1.40;;;0.53;;
3916;SDS011;1973;50.518;7.318;2023-11-19T02:12:13;1.10;;;0.60;;
3916;SDS011;1973;50.518;7.318;2023-11-19T02:14:40;1.20;;;0.60;;
3916;SDS011;1973;50.518;7.318;2023-11-19T02:17:06;1.30;;;0.70;;
3916;SDS011;1973;50.518;7.318;2023-11-19T02:19:33;1.10;;;0.50;;
3916;SDS011;1973;50.518;7.318;2023-11-19T02:21:59;1.87;;;0.70;;
3916;SDS011;1973;50.518;7.318;2023-11-19T02:24:27;1.63;;;1.10;;
3916;SDS011;1973;50.518;7.318;2023-11-19T02:27:07;1.23;;;0.70;;
3916;SDS011;1973;50.518;7.318;2023-11-19T02:29:42;1.20;;;0.80;;
3916;SDS011;1973;50.518;7.318;2023-11-19T02:32:09;3.03;;;0.80;;
3916;SDS011;1973;50.518;7.318;2023-11-19T02:34:35;1.47;;;0.80;;
3916;SDS011;1973;50.518;7.318;2023-11-19T02:37:02;1.00;;;0.60;;
3916;SDS011;1973;50.518;7.318;2023-11-19T02:39:30;1.40;;;0.70;;
3916;SDS011;1973;50.518;7.318;2023-11-19T02:41:56;2.33;;;0.70;;
3916;SDS011;1973;50.518;7.318;2023-11-19T02:44:23;2.00;;;0.90;;
3916;SDS011;1973;50.518;7.318;2023-11-19T02:46:49;2.70;;;0.97;;
3916;SDS011;1973;50.518;7.318;2023-11-19T02:49:16;3.03;;;1.23;;
3916;SDS011;1973;50.518;7.318;2023-11-19T02:51:43;1.80;;;0.90;;
3916;SDS011;1973;50.518;7.318;2023-11-19T02:54:09;1.30;;;0.80;;
3916;SDS011;1973;50.518;7.318;2023-11-19T02:56:36;1.70;;;0.83;;
3916;SDS011;1973;50.518;7.318;2023-11-19T02:59:05;2.77;;;1.43;;
3916;SDS011;1973;50.518;7.318;2023-11-19T03:01:40;1.73;;;1.00;;
3916;SDS011;1973;50.518;7.318;2023-11-19T03:04:10;2.60;;;1.10;;
3916;SDS011;1973;50.518;7.318;2023-11-19T03:06:38;1.30;;;0.90;;
3916;SDS011;1973;50.518;7.318;2023-11-19T03:09:05;3.13;;;1.17;;
3916;SDS011;1973;50.518;7.318;2023-11-19T03:11:36;2.13;;;0.90;;
3916;SDS011;1973;50.518;7.318;2023-11-19T03:14:03;1.30;;;0.87;;
3916;SDS011;1973;50.518;7.318;2023-11-19T03:16:30;1.20;;;0.70;;
3916;SDS011;1973;50.518;7.318;2023-11-19T03:18:57;1.63;;;0.93;;
3916;SDS011;1973;50.518;7.318;2023-11-19T03:21:30;1.50;;;0.80;;
3916;SDS011;1973;50.518;7.318;2023-11-19T03:23:58;1.63;;;0.80;;
3916;SDS011;1973;50.518;7.318;2023-11-19T03:26:26;2.03;;;0.80;;
3916;SDS011;1973;50.518;7.318;2023-11-19T03:28:53;2.63;;;1.10;;
3916;SDS011;1973;50.518;7.318;2023-11-19T03:31:20;1.30;;;0.80;;
3916;SDS011;1973;50.518;7.318;2023-11-19T03:33:47;3.57;;;1.10;;
3916;SDS011;1973;50.518;7.318;2023-11-19T03:36:13;4.43;;;0.70;;
3916;SDS011;1973;50.518;7.318;2023-11-19T03:38:40;3.00;;;0.90;;
3916;SDS011;1973;50.518;7.318;2023-11-19T03:41:12;2.03;;;0.80;;
3916;SDS011;1973;50.518;7.318;2023-11-19T03:43:39;1.10;;;0.73;;
3916;SDS011;1973;50.518;7.318;2023-11-19T03:46:18;3.07;;;0.80;;
3916;SDS011;1973;50.518;7.318;2023-11-19T03:48:47;1.20;;;0.60;;
3916;SDS011;1973;50.518;7.318;2023-11-19T03:51:14;1.27;;;0.67;;
3916;SDS011;1973;50.518;7.318;2023-11-19T03:53:44;1.97;;;0.70;;
3916;SDS011;1973;50.518;7.318;2023-11-19T03:56:12;2.40;;;1.00;;
3916;SDS011;1973;50.518;7.318;2023-11-19T03:58:39;3.73;;;0.70;;
3916;SDS011;1973;50.518;7.318;2023-11-19T04:01:05;1.20;;;0.70;;
3916;SDS011;1973;50.518;7.318;2023-11-19T04:03:32;3.10;;;1.00;;
3916;SDS011;1973;50.518;7.318;2023-11-19T04:05:59;1.30;;;0.90;;
3916;SDS011;1973;50.518;7.318;2023-11-19T04:08:25;2.20;;;1.00;;
3916;SDS011;1973;50.518;7.318;2023-11-19T04:10:52;1.90;;;0.70;;
3916;SDS011;1973;50.518;7.318;2023-11-19T04:13:19;1.20;;;0.70;;
3916;SDS011;1973;50.518;7.318;2023-11-19T04:15:45;3.30;;;1.03;;
3916;SDS011;1973;50.518;7.318;2023-11-19T04:18:12;2.40;;;1.20;;
3916;SDS011;1973;50.518;7.318;2023-11-19T04:20:39;1.00;;;0.60;;
3916;SDS011;1973;50.518;7.318;2023-11-19T04:23:05;4.70;;;0.70;;
3916;SDS011;1973;50.518;7.318;2023-11-19T04:25:32;1.50;;;0.67;;
3916;SDS011;1973;50.518;7.318;2023-11-19T04:27:59;1.10;;;0.57;;
3916;SDS011;1973;50.518;7.318;2023-11-19T04:30:26;2.90;;;0.70;;
3916;SDS011;1973;50.518;7.318;2023-11-19T04:32:52;1.10;;;0.50;;
3916;SDS011;1973;50.518;7.318;2023-11-19T04:35:19;1.10;;;0.60;;
3916;SDS011;1973;50.518;7.318;2023-11-19T04:37:45;3.63;;;0.60;;
3916;SDS011;1973;50.518;7.318;2023-11-19T04:40:13;1.87;;;0.70;;
3916;SDS011;1973;50.518;7.318;2023-11-19T04:42:40;1.30;;;0.60;;
3916;SDS011;1973;50.518;7.318;2023-11-19T04:45:07;1.47;;;0.60;;
3916;SDS011;1973;50.518;7.318;2023-11-19T04:47:36;1.10;;;0.60;;
3916;SDS011;1973;50.518;7.318;2023-11-19T04:50:03;1.87;;;0.50;;
3916;SDS011;1973;50.518;7.318;2023-11-19T04:52:30;1.10;;;0.60;;
3916;SDS011;1973;50.518;7.318;2023-11-19T04:54:57;1.00;;;0.67;;
3916;SDS011;1973;50.518;7.318;2023-11-19T04:57:23;0.90;;;0.50;;
3916;SDS011;1973;50.518;7.318;2023-11-19T04:59:50;1.50;;;0.60;;
3916;SDS011;1973;50.518;7.318;2023-11-19T05:02:16;1.00;;;0.60;;
3916;SDS011;1973;50.518;7.318;2023-11-19T05:04:43;1.10;;;0.67;;
3916;SDS011;1973;50.518;7.318;2023-11-19T05:07:13;1.00;;;0.60;;
3916;SDS011;1973;50.518;7.318;2023-11-19T05:09:40;1.93;;;0.70;;
3916;SDS011;1973;50.518;7.318;2023-11-19T05:12:07;1.10;;;0.60;;
3916;SDS011;1973;50.518;7.318;2023-11-19T05:14:38;1.90;;;1.07;;
3916;SDS011;1973;50.518;7.318;2023-11-19T05:17:04;3.40;;;1.13;;
3916;SDS011;1973;50.518;7.318;2023-11-19T05:19:31;2.20;;;0.90;;
3916;SDS011;1973;50.518;7.318;2023-11-19T05:21:57;3.03;;;0.70;;
3916;SDS011;1973;50.518;7.318;2023-11-19T05:24:24;1.87;;;0.70;;
3916;SDS011;1973;50.518;7.318;2023-11-19T05:26:51;1.20;;;0.60;;
3916;SDS011;1973;50.518;7.318;2023-11-19T05:29:18;4.10;;;0.80;;
3916;SDS011;1973;50.518;7.318;2023-11-19T05:31:44;0.90;;;0.50;;
3916;SDS011;1973;50.518;7.318;2023-11-19T05:34:11;1.77;;;0.60;;
3916;SDS011;1973;50.518;7.318;2023-11-19T05:36:38;2.03;;;0.67;;
3916;SDS011;1973;50.518;7.318;2023-11-19T05:39:05;1.47;;;0.60;;
3916;SDS011;1973;50.518;7.318;2023-11-19T05:41:32;5.23;;;0.70;;
3916;SDS011;1973;50.518;7.318;2023-11-19T05:43:59;1.53;;;0.83;;
3916;SDS011;1973;50.518;7.318;2023-11-19T05:46:25;1.10;;;0.60;;
3916;SDS011;1973;50.518;7.318;2023-11-19T05:48:53;2.23;;;0.63;;
3916;SDS011;1973;50.518;7.318;2023-11-19T05:51:20;2.30;;;0.80;;
3916;SDS011;1973;50.518;7.318;2023-11-19T05:53:47;1.40;;;1.00;;
3916;SDS011;1973;50.518;7.318;2023-11-19T05:56:13;2.20;;;0.80;;
3916;SDS011;1973;50.518;7.318;2023-11-19T05:58:42;6.30;;;0.90;;
3916;SDS011;1973;50.518;7.318;2023-11-19T06:01:11;1.50;;;0.70;;
3916;SDS011;1973;50.518;7.318;2023-11-19T06:03:37;3.47;;;0.70;;
3916;SDS011;1973;50.518;7.318;2023-11-19T06:06:04;1.90;;;0.80;;
3916;SDS011;1973;50.518;7.318;2023-11-19T06:08:31;2.90;;;0.80;;
3916;SDS011;1973;50.518;7.318;2023-11-19T06:10:58;1.37;;;0.90;;
3916;SDS011;1973;50.518;7.318;2023-11-19T06:13:27;5.97;;;0.80;;
3916;SDS011;1973;50.518;7.318;2023-11-19T06:15:53;1.57;;;0.80;;
3916;SDS011;1973;50.518;7.318;2023-11-19T06:18:20;1.67;;;0.73;;
3916;SDS011;1973;50.518;7.318;2023-11-19T06:20:47;1.87;;;0.70;;
3916;SDS011;1973;50.518;7.318;2023-11-19T06:23:13;3.30;;;1.07;;
3916;SDS011;1973;50.518;7.318;2023-11-19T06:25:40;2.40;;;0.70;;
3916;SDS011;1973;50.518;7.318;2023-11-19T06:28:07;2.03;;;0.60;;
3916;SDS011;1973;50.518;7.318;2023-11-19T06:30:33;1.63;;;0.80;;
3916;SDS011;1973;50.518;7.318;2023-11-19T06:33:00;2.47;;;1.00;;
3916;SDS011;1973;50.518;7.318;2023-11-19T06:35:27;2.47;;;0.90;;
3916;SDS011;1973;50.518;7.318;2023-11-19T06:37:55;1.90;;;1.10;;
3916;SDS011;1973;50.518;7.318;2023-11-19T06:40:22;5.27;;;1.10;;
3916;SDS011;1973;50.518;7.318;2023-11-19T06:42:49;1.73;;;1.10;;
3916;SDS011;1973;50.518;7.318;2023-11-19T06:45:15;3.80;;;1.23;;
3916;SDS011;1973;50.518;7.318;2023-11-19T06:47:42;2.17;;;1.20;;
3916;SDS011;1973;50.518;7.318;2023-11-19T06:50:08;4.47;;;1.40;;
3916;SDS011;1973;50.518;7.318;2023-11-19T06:52:35;5.07;;;1.83;;
3916;SDS011;1973;50.518;7.318;2023-11-19T06:55:04;3.10;;;1.80;;
3916;SDS011;1973;50.518;7.318;2023-11-19T06:57:34;4.10;;;1.37;;
3916;SDS011;1973;50.518;7.318;2023-11-19T07:00:01;4.50;;;1.83;;
3916;SDS011;1973;50.518;7.318;2023-11-19T07:02:28;3.00;;;1.17;;
3916;SDS011;1973;50.518;7.318;2023-11-19T07:04:54;3.80;;;1.50;;
3916;SDS011;1973;50.518;7.318;2023-11-19T07:07:21;12.73;;;2.00;;
3916;SDS011;1973;50.518;7.318;2023-11-19T07:09:47;3.10;;;1.30;;
3916;SDS011;1973;50.518;7.318;2023-11-19T07:12:14;7.87;;;1.90;;
3916;SDS011;1973;50.518;7.318;2023-11-19T07:14:41;4.50;;;1.53;;
3916;SDS011;1973;50.518;7.318;2023-11-19T07:17:08;4.00;;;1.90;;
3916;SDS011;1973;50.518;7.318;2023-11-19T07:19:36;10.10;;;3.70;;
3916;SDS011;1973;50.518;7.318;2023-11-19T07:22:04;13.20;;;4.60;;
3916;SDS011;1973;50.518;7.318;2023-11-19T07:24:32;11.37;;;5.03;;
3916;SDS011;1973;50.518;7.318;2023-11-19T07:26:58;24.13;;;9.57;;
3916;SDS011;1973;50.518;7.318;2023-11-19T07:29:25;12.57;;;6.03;;
3916;SDS011;1973;50.518;7.318;2023-11-19T07:31:55;12.40;;;5.40;;
3916;SDS011;1973;50.518;7.318;2023-11-19T07:34:23;15.13;;;3.80;;
3916;SDS011;1973;50.518;7.318;2023-11-19T07:36:51;9.10;;;4.70;;
3916;SDS011;1973;50.518;7.318;2023-11-19T07:39:18;7.33;;;4.27;;
3916;SDS011;1973;50.518;7.318;2023-11-19T07:41:46;13.60;;;4.60;;
3916;SDS011;1973;50.518;7.318;2023-11-19T07:44:13;12.03;;;4.17;;
3916;SDS011;1973;50.518;7.318;2023-11-19T07:46:40;5.10;;;3.60;;
3916;SDS011;1973;50.518;7.318;2023-11-19T07:49:08;4.47;;;3.60;;
3916;SDS011;1973;50.518;7.318;2023-11-19T07:51:36;11.07;;;3.50;;
3916;SDS011;1973;50.518;7.318;2023-11-19T07:54:03;9.87;;;3.57;;
3916;SDS011;1973;50.518;7.318;2023-11-19T07:56:31;6.70;;;2.97;;
3916;SDS011;1973;50.518;7.318;2023-11-19T07:58:58;11.60;;;3.63;;
3916;SDS011;1973;50.518;7.318;2023-11-19T08:01:25;11.07;;;2.70;;
3916;SDS011;1973;50.518;7.318;2023-11-19T08:03:51;11.07;;;2.70;;
3916;SDS011;1973;50.518;7.318;2023-11-19T08:06:21;9.90;;;2.67;;
3916;SDS011;1973;50.518;7.318;2023-11-19T08:08:47;14.03;;;2.73;;
3916;SDS011;1973;50.518;7.318;2023-11-19T08:11:14;17.33;;;2.90;;
3916;SDS011;1973;50.518;7.318;2023-11-19T08:13:41;13.07;;;3.10;;
3916;SDS011;1973;50.518;7.318;2023-11-19T08:16:08;12.00;;;3.17;;
3916;SDS011;1973;50.518;7.318;2023-11-19T08:18:35;15.23;;;3.17;;
3916;SDS011;1973;50.518;7.318;2023-11-19T08:21:02;10.30;;;2.80;;
3916;SDS011;1973;50.518;7.318;2023-11-19T08:23:31;8.63;;;2.37;;
3916;SDS011;1973;50.518;7.318;2023-11-19T08:25:58;9.40;;;2.83;;
3916;SDS011;1973;50.518;7.318;2023-11-19T08:28:25;16.93;;;3.63;;
3916;SDS011;1973;50.518;7.318;2023-11-19T08:30:51;10.23;;;2.80;;
3916;SDS011;1973;50.518;7.318;2023-11-19T08:33:18;16.30;;;3.13;;
3916;SDS011;1973;50.518;7.318;2023-11-19T08:35:44;8.97;;;2.93;;
3916;SDS011;1973;50.518;7.318;2023-11-19T08:38:11;12.67;;;3.20;;
3916;SDS011;1973;50.518;7.318;2023-11-19T08:40:38;14.10;;;3.33;;
3916;SDS011;1973;50.518;7.318;2023-11-19T08:43:05;11.23;;;2.87;;
3916;SDS011;1973;50.518;7.318;2023-11-19T08:45:32;16.10;;;4.33;;
3916;SDS011;1973;50.518;7.318;2023-11-19T08:47:59;11.73;;;2.73;;
3916;SDS011;1973;50.518;7.318;2023-11-19T08:50:25;15.23;;;2.90;;
3916;SDS011;1973;50.518;7.318;2023-11-19T08:52:52;15.27;;;3.87;;
3916;SDS011;1973;50.518;7.318;2023-11-19T08:55:19;11.63;;;2.90;;
3916;SDS011;1973;50.518;7.318;2023-11-19T08:57:45;12.57;;;3.47;;
3916;SDS011;1973;50.518;7.318;2023-11-19T09:00:12;9.70;;;3.50;;
3916;SDS011;1973;50.518;7.318;2023-11-19T09:02:40;9.53;;;2.60;;
3916;SDS011;1973;50.518;7.318;2023-11-19T09:05:07;12.23;;;2.47;;
3916;SDS011;1973;50.518;7.318;2023-11-19T09:07:34;13.17;;;4.03;;
3916;SDS011;1973;50.518;7.318;2023-11-19T09:10:01;14.53;;;3.07;;
3916;SDS011;1973;50.518;7.318;2023-11-19T09:12:28;13.17;;;3.43;;
3916;SDS011;1973;50.518;7.318;2023-11-19T09:14:54;10.10;;;2.77;;
3916;SDS011;1973;50.518;7.318;2023-11-19T09:17:21;14.73;;;3.20;;
3916;SDS011;1973;50.518;7.318;2023-11-19T09:19:47;16.97;;;3.43;;
3916;SDS011;1973;50.518;7.318;2023-11-19T09:22:14;14.57;;;3.30;;
3916;SDS011;1973;50.518;7.318;2023-11-19T09:24:40;10.67;;;2.70;;
3916;SDS011;1973;50.518;7.318;2023-11-19T09:27:07;17.13;;;4.20;;
3916;SDS011;1973;50.518;7.318;2023-11-19T09:29:34;17.93;;;4.53;;
3916;SDS011;1973;50.518;7.318;2023-11-19T09:32:00;13.47;;;3.30;;
3916;SDS011;1973;50.518;7.318;2023-11-19T09:34:30;12.60;;;3.67;;
3916;SDS011;1973;50.518;7.318;2023-11-19T09:36:58;13.00;;;3.40;;
3916;SDS011;1973;50.518;7.318;2023-11-19T09:39:24;15.30;;;3.33;;
3916;SDS011;1973;50.518;7.318;2023-11-19T09:41:52;12.63;;;3.23;;
3916;SDS011;1973;50.518;7.318;2023-11-19T09:44:18;16.63;;;4.30;;
3916;SDS011;1973;50.518;7.318;2023-11-19T09:46:45;15.20;;;4.40;;
3916;SDS011;1973;50.518;7.318;2023-11-19T09:49:13;10.00;;;3.03;;
3916;SDS011;1973;50.518;7.318;2023-11-19T09:51:42;12.93;;;3.10;;
3916;SDS011;1973;50.518;7.318;2023-11-19T09:54:08;10.30;;;3.13;;
3916;SDS011;1973;50.518;7.318;2023-11-19T09:56:35;21.83;;;4.00;;
3916;SDS011;1973;50.518;7.318;2023-11-19T09:59:04;8.90;;;2.73;;
3916;SDS011;1973;50.518;7.318;2023-11-19T10:01:31;10.60;;;3.03;;
3916;SDS011;1973;50.518;7.318;2023-11-19T10:03:58;15.73;;;3.33;;
3916;SDS011;1973;50.518;7.318;2023-11-19T10:06:26;14.70;;;3.30;;
3916;SDS011;1973;50.518;7.318;2023-11-19T10:08:53;13.77;;;3.10;;
3916;SDS011;1973;50.518;7.318;2023-11-19T10:11:21;10.50;;;3.50;;
3916;SDS011;1973;50.518;7.318;2023-11-19T10:13:48;12.97;;;3.70;;
3916;SDS011;1973;50.518;7.318;2023-11-19T10:16:15;13.40;;;3.63;;
3916;SDS011;1973;50.518;7.318;2023-11-19T10:18:48;13.27;;;4.10;;
3916;SDS011;1973;50.518;7.318;2023-11-19T10:21:17;16.50;;;3.90;;
3916;SDS011;1973;50.518;7.318;2023-11-19T10:23:48;12.10;;;3.20;;
3916;SDS011;1973;50.518;7.318;2023-11-19T10:26:16;17.60;;;3.67;;
3916;SDS011;1973;50.518;7.318;2023-11-19T10:28:43;10.03;;;3.33;;
3916;SDS011;1973;50.518;7.318;2023-11-19T10:31:13;16.63;;;3.63;;
3916;SDS011;1973;50.518;7.318;2023-11-19T10:33:40;11.40;;;3.07;;
3916;SDS011;1973;50.518;7.318;2023-11-19T10:36:07;10.47;;;3.43;;
3916;SDS011;1973;50.518;7.318;2023-11-19T10:38:34;12.93;;;3.63;;
3916;SDS011;1973;50.518;7.318;2023-11-19T10:41:01;14.07;;;3.37;;
3916;SDS011;1973;50.518;7.318;2023-11-19T10:43:27;16.07;;;3.77;;
3916;SDS011;1973;50.518;7.318;2023-11-19T10:45:54;13.63;;;3.20;;
3916;SDS011;1973;50.518;7.318;2023-11-19T10:48:36;16.77;;;3.37;;
3916;SDS011;1973;50.518;7.318;2023-11-19T10:51:04;12.93;;;3.87;;
3916;SDS011;1973;50.518;7.318;2023-11-19T10:53:35;11.40;;;3.00;;
3916;SDS011;1973;50.518;7.318;2023-11-19T10:56:06;11.70;;;4.93;;
3916;SDS011;1973;50.518;7.318;2023-11-19T10:58:37;10.83;;;3.50;;
3916;SDS011;1973;50.518;7.318;2023-11-19T11:01:27;17.47;;;4.30;;
3916;SDS011;1973;50.518;7.318;2023-11-19T11:04:01;10.13;;;3.53;;
3916;SDS011;1973;50.518;7.318;2023-11-19T11:06:28;13.97;;;4.00;;
3916;SDS011;1973;50.518;7.318;2023-11-19T11:08:56;14.10;;;3.40;;
3916;SDS011;1973;50.518;7.318;2023-11-19T11:11:23;15.20;;;3.90;;
3916;SDS011;1973;50.518;7.318;2023-11-19T11:13:52;12.80;;;3.40;;
3916;SDS011;1973;50.518;7.318;2023-11-19T11:16:21;9.97;;;2.70;;
3916;SDS011;1973;50.518;7.318;2023-11-19T11:18:48;12.83;;;2.90;;
3916;SDS011;1973;50.518;7.318;2023-11-19T11:21:17;14.00;;;3.37;;
3916;SDS011;1973;50.518;7.318;2023-11-19T11:23:56;10.63;;;2.83;;
3916;SDS011;1973;50.518;7.318;2023-11-19T11:29:27;10.80;;;3.60;;
3916;SDS011;1973;50.518;7.318;2023-11-19T11:32:32;19.90;;;4.40;;
3916;SDS011;1973;50.518;7.318;2023-11-19T11:35:08;8.57;;;2.23;;
3916;SDS011;1973;50.518;7.318;2023-11-19T11:37:46;13.10;;;3.53;;
3916;SDS011;1973;50.518;7.318;2023-11-19T11:40:16;11.10;;;3.03;;
3916;SDS011;1973;50.518;7.318;2023-11-19T11:42:44;9.40;;;2.73;;
3916;SDS011;1973;50.518;7.318;2023-11-19T11:45:11;13.33;;;3.47;;
3916;SDS011;1973;50.518;7.318;2023-11-19T11:55:27;10.73;;;3.70;;
3916;SDS011;1973;50.518;7.318;2023-11-19T11:57:57;10.53;;;3.10;;
3916;SDS011;1973;50.518;7.318;2023-11-19T12:00:27;13.37;;;3.60;;
3916;SDS011;1973;50.518;7.318;2023-11-19T12:02:56;9.70;;;3.27;;
3916;SDS011;1973;50.518;7.318;2023-11-19T12:05:23;12.70;;;3.53;;
3916;SDS011;1973;50.518;7.318;2023-11-19T12:07:57;7.20;;;2.60;;
3916;SDS011;1973;50.518;7.318;2023-11-19T12:10:30;13.33;;;3.53;;
3916;SDS011;1973;50.518;7.318;2023-11-19T12:12:59;11.50;;;2.73;;
3916;SDS011;1973;50.518;7.318;2023-11-19T12:15:26;14.07;;;2.90;;
3916;SDS011;1973;50.518;7.318;2023-11-19T12:17:54;5.93;;;2.33;;
3916;SDS011;1973;50.518;7.318;2023-11-19T12:20:22;10.70;;;2.57;;
3916;SDS011;1973;50.518;7.318;2023-11-19T12:22:53;11.80;;;2.47;;
3916;SDS011;1973;50.518;7.318;2023-11-19T12:25:20;11.27;;;3.07;;
3916;SDS011;1973;50.518;7.318;2023-11-19T12:27:48;12.13;;;3.13;;
3916;SDS011;1973;50.518;7.318;2023-11-19T12:30:25;15.07;;;2.60;;
3916;SDS011;1973;50.518;7.318;2023-11-19T12:32:53;9.90;;;2.50;;
3916;SDS011;1973;50.518;7.318;2023-11-19T12:35:21;8.50;;;2.67;;
3916;SDS011;1973;50.518;7.318;2023-11-19T12:37:49;14.70;;;3.60;;
3916;SDS011;1973;50.518;7.318;2023-11-19T12:40:20;10.20;;;3.63;;
3916;SDS011;1973;50.518;7.318;2023-11-19T12:42:52;14.10;;;2.83;;
3916;SDS011;1973;50.518;7.318;2023-11-19T12:45:23;10.67;;;2.70;;
3916;SDS011;1973;50.518;7.318;2023-11-19T12:48:03;9.23;;;2.20;;
3916;SDS011;1973;50.518;7.318;2023-11-19T12:50:49;13.70;;;2.30;;
3916;SDS011;1973;50.518;7.318;2023-11-19T12:53:21;11.60;;;2.87;;
3916;SDS011;1973;50.518;7.318;2023-11-19T12:55:48;9.50;;;2.80;;
3916;SDS011;1973;50.518;7.318;2023-11-19T12:58:31;8.43;;;2.47;;
3916;SDS011;1973;50.518;7.318;2023-11-19T13:00:59;10.73;;;2.60;;
3916;SDS011;1973;50.518;7.318;2023-11-19T13:03:30;12.00;;;3.10;;
3916;SDS011;1973;50.518;7.318;2023-11-19T13:06:01;10.07;;;3.20;;
3916;SDS011;1973;50.518;7.318;2023-11-19T13:08:35;11.43;;;2.87;;
3916;SDS011;1973;50.518;7.318;2023-11-19T13:11:04;10.43;;;3.00;;
3916;SDS011;1973;50.518;7.318;2023-11-19T13:13:32;12.10;;;2.73;;
3916;SDS011;1973;50.518;7.318;2023-11-19T13:16:16;11.20;;;2.97;;
3916;SDS011;1973;50.518;7.318;2023-11-19T13:18:46;8.80;;;3.00;;
3916;SDS011;1973;50.518;7.318;2023-11-19T13:21:13;6.97;;;2.70;;
3916;SDS011;1973;50.518;7.318;2023-11-19T13:23:39;8.13;;;2.50;;
3916;SDS011;1973;50.518;7.318;2023-11-19T13:26:06;12.60;;;3.10;;
3916;SDS011;1973;50.518;7.318;2023-11-19T13:28:33;9.60;;;2.93;;
3916;SDS011;1973;50.518;7.318;2023-11-19T13:31:00;7.80;;;2.80;;
3916;SDS011;1973;50.518;7.318;2023-11-19T13:33:26;9.50;;;3.33;;
3916;SDS011;1973;50.518;7.318;2023-11-19T13:35:53;20.10;;;3.33;;
3916;SDS011;1973;50.518;7.318;2023-11-19T13:38:20;8.47;;;2.00;;
3916;SDS011;1973;50.518;7.318;2023-11-19T13:40:47;13.07;;;3.07;;
3916;SDS011;1973;50.518;7.318;2023-11-19T13:43:14;9.80;;;2.97;;
3916;SDS011;1973;50.518;7.318;2023-11-19T13:45:40;12.27;;;3.13;;
3916;SDS011;1973;50.518;7.318;2023-11-19T13:48:07;12.23;;;2.80;;
3916;SDS011;1973;50.518;7.318;2023-11-19T13:50:33;11.47;;;3.40;;
3916;SDS011;1973;50.518;7.318;2023-11-19T13:53:00;8.93;;;3.03;;
3916;SDS011;1973;50.518;7.318;2023-11-19T13:55:27;12.63;;;3.00;;
3916;SDS011;1973;50.518;7.318;2023-11-19T13:57:53;8.93;;;3.10;;
3916;SDS011;1973;50.518;7.318;2023-11-19T14:00:20;7.97;;;2.40;;
3916;SDS011;1973;50.518;7.318;2023-11-19T14:02:49;8.37;;;2.37;;
3916;SDS011;1973;50.518;7.318;2023-11-19T14:05:15;14.40;;;2.30;;
3916;SDS011;1973;50.518;7.318;2023-11-19T14:08:03;7.43;;;2.10;;
3916;SDS011;1973;50.518;7.318;2023-11-19T14:10:49;11.10;;;2.50;;
3916;SDS011;1973;50.518;7.318;2023-11-19T14:13:15;6.70;;;2.80;;
3916;SDS011;1973;50.518;7.318;2023-11-19T14:15:42;9.57;;;2.30;;
3916;SDS011;1973;50.518;7.318;2023-11-19T14:18:10;11.03;;;3.00;;
3916;SDS011;1973;50.518;7.318;2023-11-19T14:20:37;7.60;;;3.00;;
3916;SDS011;1973;50.518;7.318;2023-11-19T14:23:05;8.70;;;3.50;;
3916;SDS011;1973;50.518;7.318;2023-11-19T14:25:31;8.67;;;2.57;;
3916;SDS011;1973;50.518;7.318;2023-11-19T14:27:58;8.90;;;2.47;;
3916;SDS011;1973;50.518;7.318;2023-11-19T14:30:25;8.13;;;2.97;;
3916;SDS011;1973;50.518;7.318;2023-11-19T14:32:51;9.53;;;2.67;;
3916;SDS011;1973;50.518;7.318;2023-11-19T14:35:18;12.47;;;2.50;;
3916;SDS011;1973;50.518;7.318;2023-11-19T14:37:46;10.20;;;2.63;;
3916;SDS011;1973;50.518;7.318;2023-11-19T14:40:12;14.33;;;3.03;;
3916;SDS011;1973;50.518;7.318;2023-11-19T14:42:39;11.53;;;3.00;;
3916;SDS011;1973;50.518;7.318;2023-11-19T14:45:06;7.73;;;3.03;;
3916;SDS011;1973;50.518;7.318;2023-11-19T14:47:33;12.50;;;3.10;;
3916;SDS011;1973;50.518;7.318;2023-11-19T14:50:00;9.17;;;2.67;;
3916;SDS011;1973;50.518;7.318;2023-11-19T14:52:26;10.23;;;2.53;;
3916;SDS011;1973;50.518;7.318;2023-11-19T14:54:53;9.63;;;2.10;;
3916;SDS011;1973;50.518;7.318;2023-11-19T14:57:20;6.70;;;2.67;;
3916;SDS011;1973;50.518;7.318;2023-11-19T14:59:47;7.70;;;2.40;;
3916;SDS011;1973;50.518;7.318;2023-11-19T15:02:13;9.90;;;2.87;;
3916;SDS011;1973;50.518;7.318;2023-11-19T15:04:40;7.27;;;2.40;;
3916;SDS011;1973;50.518;7.318;2023-11-19T15:07:08;9.67;;;2.40;;
3916;SDS011;1973;50.518;7.318;2023-11-19T15:09:35;10.03;;;2.23;;
3916;SDS011;1973;50.518;7.318;2023-11-19T15:12:04;7.20;;;2.90;;
3916;SDS011;1973;50.518;7.318;2023-11-19T15:14:31;9.17;;;2.70;;
3916;SDS011;1973;50.518;7.318;2023-11-19T15:16:58;9.90;;;2.70;;
3916;SDS011;1973;50.518;7.318;2023-11-19T15:19:24;8.80;;;3.27;;
3916;SDS011;1973;50.518;7.318;2023-11-19T15:21:51;11.53;;;2.50;;
3916;SDS011;1973;50.518;7.318;2023-11-19T15:24:17;9.83;;;3.37;;
3916;SDS011;1973;50.518;7.318;2023-11-19T15:26:44;12.47;;;2.87;;